Time;durP1;ratioP1;P1;durP2;ratioP2;P2;SDS_P1;SDS_P2;PMS_P1;PMS_P2;Temp;Humidity;BMP_temperature;BMP_pressure;BME280_temperature;BME280_humidity;BME280_pressure;Samples;Min_cycle;Max_cycle;Signal;HPM_P1;HPM_P2
2022/09/10 00:07:32;;;;;;;5.80;4.95;;;;;;;24.07;57.72;99962.84;20697679;28;20124;-79
2022/09/10 00:17:32;;;;;;;4.82;4.40;;;;;;;24.18;57.54;99964.44;20695322;28;20038;-79
2022/09/10 00:27:34;;;;;;;5.30;4.80;;;;;;;24.22;57.31;99945.47;20709257;28;20054;-79
2022/09/10 00:37:36;;;;;;;4.53;4.13;;;;;;;24.24;57.30;99954.13;20681799;28;20034;-79
2022/09/10 00:47:38;;;;;;;4.10;3.70;;;;;;;24.27;57.10;99942.41;20686006;28;20046;-79
2022/09/10 00:57:41;;;;;;;4.53;4.03;;;;;;;24.30;57.20;99929.69;20684910;28;20045;-79
2022/09/10 01:07:42;;;;;;;4.30;3.90;;;;;;;24.29;57.21;99914.81;20678343;28;20061;-80
2022/09/10 01:18:07;;;;;;;5.50;3.80;;;;;;;24.29;56.88;99913.94;20684594;28;20033;-80
2022/09/10 01:28:24;;;;;;;4.15;3.75;;;;;;;24.29;57.00;99895.44;20700896;28;20042;-80
2022/09/10 01:38:33;;;;;;;5.47;4.57;;;;;;;24.30;57.06;99886.50;20703844;28;20100;-80
2022/09/10 01:48:43;;;;;;;4.93;4.15;;;;;;;24.29;56.82;99882.19;20702922;28;20052;-80
2022/09/10 01:58:45;;;;;;;5.85;4.50;;;;;;;24.28;56.72;99883.22;20698924;28;20042;-80
2022/09/10 02:08:48;;;;;;;;;;;;;;;24.25;56.29;99842.00;20712169;28;20487;-80
2022/09/10 02:18:48;;;;;;;4.07;3.78;;;;;;;24.13;55.39;99848.50;20724977;28;19960;-80
2022/09/10 02:28:49;;;;;;;5.25;2.97;;;;;;;23.97;53.63;99849.19;20719175;28;20445;-80
2022/09/10 02:38:49;;;;;;;3.97;2.67;;;;;;;23.75;51.85;99848.59;20702838;28;20111;-80
2022/09/10 02:48:50;;;;;;;2.55;2.10;;;;;;;23.64;50.79;99822.38;20716725;28;20046;-80
2022/09/10 02:58:50;;;;;;;3.75;1.95;;;;;;;23.52;50.96;99832.31;20704128;28;20032;-81
2022/09/10 03:08:51;;;;;;;3.60;1.60;;;;;;;23.34;50.28;99851.59;20704053;28;20053;-80
2022/09/10 03:18:51;;;;;;;1.58;1.40;;;;;;;23.26;49.36;99848.84;20697302;28;20070;-80
2022/09/10 03:28:52;;;;;;;1.77;1.50;;;;;;;23.21;48.98;99850.28;20708812;28;20045;-80
2022/09/10 03:38:52;;;;;;;2.25;1.13;;;;;;;23.20;48.80;99836.22;20731177;28;20596;-79
2022/09/10 03:48:52;;;;;;;1.58;0.93;;;;;;;23.15;48.58;99838.44;20699411;28;20048;-79
2022/09/10 03:58:53;;;;;;;1.55;0.88;;;;;;;23.03;48.50;99849.19;20692729;28;20077;-78
2022/09/10 04:08:53;;;;;;;2.45;0.98;;;;;;;23.00;48.03;99835.47;20685828;28;20037;-80
2022/09/10 04:18:54;;;;;;;1.77;1.10;;;;;;;22.93;48.28;99848.38;20686617;28;20073;-79
2022/09/10 04:28:55;;;;;;;2.95;0.95;;;;;;;22.92;47.91;99849.34;20702247;28;20046;-80
2022/09/10 04:38:55;;;;;;;2.63;1.00;;;;;;;22.70;48.19;99864.56;20701604;28;20038;-81
2022/09/10 04:48:56;;;;;;;2.00;0.75;;;;;;;22.84;47.58;99870.38;20703056;28;21682;-80
2022/09/10 04:58:56;;;;;;;2.00;0.73;;;;;;;22.70;47.07;99866.34;20705387;28;20477;-79
2022/09/10 05:08:58;;;;;;;1.63;0.60;;;;;;;22.68;47.19;99863.88;20701611;28;20041;-80
2022/09/10 05:18:58;;;;;;;0.97;0.67;;;;;;;22.67;47.61;99864.84;20693454;28;20038;-79
2022/09/10 05:28:59;;;;;;;2.75;0.73;;;;;;;22.64;47.71;99866.94;20704015;28;20127;-78
2022/09/10 05:39:02;;;;;;;1.00;0.80;;;;;;;22.60;48.08;99889.31;20674791;28;20038;-77
2022/09/10 05:49:02;;;;;;;2.97;0.85;;;;;;;22.59;47.91;99869.16;20690261;28;20050;-78
2022/09/10 05:59:03;;;;;;;1.25;0.88;;;;;;;22.68;47.99;99887.63;20671932;28;20875;-78
2022/09/10 06:09:04;;;;;;;1.83;0.82;;;;;;;22.71;48.32;99882.03;20720208;28;20046;-77
2022/09/10 06:19:04;;;;;;;0.95;0.73;;;;;;;22.75;47.92;99879.13;20715082;28;20064;-77
2022/09/10 06:29:05;;;;;;;2.25;0.80;;;;;;;22.81;48.01;99882.06;20736366;28;20049;-79
2022/09/10 06:39:06;;;;;;;0.70;0.70;;;;;;;22.80;48.17;99879.53;20728950;28;20512;-76
2022/09/10 06:49:10;;;;;;;1.85;0.90;;;;;;;22.73;48.45;99873.16;20719248;28;20049;-77
2022/09/10 06:59:12;;;;;;;1.42;0.90;;;;;;;22.67;48.31;99891.22;20714415;28;20037;-76
2022/09/10 07:09:13;;;;;;;3.53;0.82;;;;;;;22.83;48.56;99903.03;20688871;28;20105;-79
2022/09/10 07:19:14;;;;;;;2.10;1.08;;;;;;;23.07;48.83;99902.56;20716613;28;20045;-79
2022/09/10 07:29:14;;;;;;;1.00;1.00;;;;;;;23.25;49.30;99909.75;20686619;28;20475;-77
2022/09/10 07:39:15;;;;;;;2.40;1.02;;;;;;;23.36;49.62;99906.94;20690378;28;20593;-80
2022/09/10 07:49:16;;;;;;;6.50;1.40;;;;;;;23.46;49.40;99930.66;20688127;28;20479;-77
2022/09/10 07:59:16;;;;;;;2.90;1.20;;;;;;;23.56;50.05;99935.91;20705328;28;20061;-77
2022/09/10 08:09:20;;;;;;;4.25;1.35;;;;;;;23.68;50.62;99945.34;20687997;28;20069;-76
2022/09/10 08:19:20;;;;;;;17.83;2.45;;;;;;;23.64;50.66;99936.88;20701022;28;20042;-75
2022/09/10 08:29:22;;;;;;;14.70;2.30;;;;;;;23.78;50.92;99950.59;20673231;28;24555;-76
2022/09/10 08:39:23;;;;;;;1.80;1.00;;;;;;;23.42;49.14;99943.34;20696845;28;20641;-75
2022/09/10 08:49:35;;;;;;;2.27;1.10;;;;;;;23.25;49.18;99944.91;20685774;28;20057;-75
2022/09/10 08:59:41;;;;;;;6.88;2.05;;;;;;;23.25;48.82;99942.28;20675536;28;20132;-75
2022/09/10 09:09:42;;;;;;;3.15;2.50;;;;;;;23.23;49.62;99944.25;20670117;28;20548;-75
2022/09/10 09:20:10;;;;;;;2.95;1.15;;;;;;;23.22;48.13;99952.28;20659446;28;20042;-76
2022/09/10 09:30:21;;;;;;;4.00;0.75;;;;;;;23.23;47.19;99965.38;20676212;28;20057;-76
2022/09/10 09:40:36;;;;;;;0.60;0.60;;;;;;;23.29;47.00;99953.38;20686881;28;20091;-77
2022/09/10 09:50:41;;;;;;;2.38;0.60;;;;;;;23.28;47.03;99951.75;20659098;28;20158;-75
2022/09/10 10:00:43;;;;;;;2.65;1.20;;;;;;;23.30;46.43;99926.00;20651825;28;20057;-77
2022/09/10 10:10:50;;;;;;;195.50;114.10;;;;;;;23.47;46.97;99922.63;20655702;28;20038;-76
2022/09/10 10:21:09;;;;;;;6.78;3.75;;;;;;;23.13;45.69;99906.41;20655285;28;20034;-75
2022/09/10 10:31:12;;;;;;;5.82;2.90;;;;;;;23.15;46.92;99921.13;20646873;28;20459;-76
2022/09/10 10:41:24;;;;;;;2.80;0.80;;;;;;;23.24;44.16;99905.44;20660558;28;20042;-76
2022/09/10 10:51:49;;;;;;;1.95;0.32;;;;;;;23.66;43.26;99884.69;20661490;28;20105;-75
2022/09/10 11:01:56;;;;;;;1.45;0.50;;;;;;;23.80;40.62;99886.00;20655580;28;20038;-75
2022/09/10 11:12:02;;;;;;;3.55;0.40;;;;;;;24.03;41.71;99888.25;20693204;28;20038;-74
2022/09/10 11:22:13;;;;;;;1.25;0.50;;;;;;;24.20;40.00;99878.66;20696677;28;20675;-73
2022/09/10 11:32:35;;;;;;;0.23;0.23;;;;;;;24.28;38.82;99878.75;20712140;28;20049;-75
2022/09/10 11:42:41;;;;;;;0.47;0.30;;;;;;;24.53;38.81;99873.63;20708788;28;20057;-75
2022/09/10 11:52:42;;;;;;;0.88;0.50;;;;;;;24.59;38.60;99862.44;20708691;28;20041;-74
2022/09/10 12:03:20;;;;;;;1.20;0.47;;;;;;;24.76;39.41;99854.66;20689265;28;20045;-75
2022/09/10 12:13:21;;;;;;;1.13;0.40;;;;;;;24.91;37.90;99852.25;20708223;28;20177;-74
2022/09/10 12:23:27;;;;;;;2.83;0.30;;;;;;;24.88;37.12;99853.41;20690221;28;20053;-74
2022/09/10 12:33:29;;;;;;;3.10;0.50;;;;;;;25.02;36.99;99859.13;20685663;28;20385;-73
2022/09/10 12:43:38;;;;;;;;;;;;;;;24.96;38.14;99843.84;20686703;28;21890;-74
2022/09/10 12:54:06;;;;;;;0.90;0.60;;;;;;;25.11;36.58;99842.28;20664628;28;19926;-74
2022/09/10 13:04:27;;;;;;;1.05;0.80;;;;;;;25.17;36.17;99838.16;20654529;28;20042;-74
2022/09/10 13:14:34;;;;;;;0.70;0.60;;;;;;;25.44;36.11;99838.94;20666118;28;20060;-74
2022/09/10 13:24:56;;;;;;;1.70;0.63;;;;;;;25.56;36.25;99827.91;20657989;28;20065;-76
2022/09/10 13:35:07;;;;;;;4.10;0.60;;;;;;;25.74;36.13;99840.19;20651013;28;20041;-76
2022/09/10 13:45:19;;;;;;;0.97;0.53;;;;;;;25.30;36.13;99841.19;20659415;28;20192;-73
2022/09/10 13:55:29;;;;;;;1.50;0.60;;;;;;;25.55;36.40;99828.91;20676585;28;20303;-76
2022/09/10 14:05:45;;;;;;;0.90;0.50;;;;;;;25.56;35.06;99819.09;20683153;28;20046;-75
2022/09/10 14:15:46;;;;;;;0.85;0.60;;;;;;;25.72;35.46;99819.16;20692629;28;20038;-76
2022/09/10 14:25:47;;;;;;;2.35;0.70;;;;;;;25.75;35.06;99820.66;20691014;28;20046;-76
2022/09/10 14:35:50;;;;;;;4.93;0.60;;;;;;;25.85;35.46;99808.09;20696225;28;20038;-75
2022/09/10 14:45:50;;;;;;;1.05;0.57;;;;;;;25.91;34.25;99816.38;20727286;28;20080;-75
2022/09/10 14:55:51;;;;;;;1.17;0.50;;;;;;;25.87;32.88;99819.34;20702474;28;20049;-75
2022/09/10 15:05:51;;;;;;;1.42;0.57;;;;;;;25.84;32.83;99818.84;20690978;28;20463;-75
2022/09/10 15:15:52;;;;;;;1.13;0.50;;;;;;;25.91;32.62;99824.34;20693792;28;20520;-75
2022/09/10 15:25:55;;;;;;;3.08;0.52;;;;;;;25.95;33.06;99826.50;20693194;28;20404;-72
2022/09/10 15:35:57;;;;;;;0.50;0.30;;;;;;;25.91;32.95;99837.59;20717199;28;20038;-74
2022/09/10 15:46:00;;;;;;;0.82;0.60;;;;;;;25.80;33.38;99850.16;20708951;28;20819;-74
2022/09/10 15:56:06;;;;;;;2.42;0.68;;;;;;;25.64;33.38;99866.03;20714357;28;20145;-74
2022/09/10 16:06:06;;;;;;;0.90;0.45;;;;;;;25.53;33.29;99875.13;20712809;28;20428;-74
2022/09/10 16:16:10;;;;;;;0.80;0.50;;;;;;;25.38;33.56;99888.16;20723102;28;20052;-75
2022/09/10 16:26:14;;;;;;;1.15;0.43;;;;;;;25.22;33.05;99895.00;20695813;28;20129;-72
2022/09/10 16:36:17;;;;;;;5.55;0.50;;;;;;;25.00;34.17;99891.06;20690023;28;20056;-74
2022/09/10 16:46:18;;;;;;;1.52;0.60;;;;;;;24.97;34.38;99898.47;20695535;28;20100;-74
2022/09/10 16:56:18;;;;;;;4.90;0.53;;;;;;;24.88;34.96;99901.06;20696461;28;20068;-73
2022/09/10 17:06:25;;;;;;;2.85;0.80;;;;;;;24.84;35.94;99915.63;20687969;28;20112;-75
2022/09/10 17:16:35;;;;;;;0.77;0.50;;;;;;;24.74;35.76;99915.72;20694709;28;20084;-73
2022/09/10 17:26:38;;;;;;;0.88;0.40;;;;;;;24.75;34.97;99929.78;20689171;28;20041;-73
2022/09/10 17:36:41;;;;;;;4.38;0.57;;;;;;;24.82;35.51;99944.06;20679188;28;20054;-75
2022/09/10 17:46:42;;;;;;;4.95;1.00;;;;;;;24.80;35.15;99956.63;20676218;28;20049;-75
2022/09/10 17:56:42;;;;;;;6.68;3.90;;;;;;;24.84;35.55;99976.53;20678507;28;20488;-75
2022/09/10 18:06:43;;;;;;;5.57;2.90;;;;;;;24.78;35.83;100000.97;20676876;28;20054;-76
2022/09/10 18:16:45;;;;;;;2.13;1.92;;;;;;;24.76;35.23;100009.03;20687303;28;20054;-76
2022/09/10 18:26:47;;;;;;;2.65;1.00;;;;;;;24.77;35.17;100023.13;20685916;28;20052;-75
2022/09/10 18:36:48;;;;;;;1.75;0.60;;;;;;;24.71;35.51;100029.84;20680440;28;20050;-75
2022/09/10 18:46:49;;;;;;;2.97;0.80;;;;;;;24.60;35.78;100027.41;20686496;28;20081;-74
2022/09/10 18:56:50;;;;;;;1.05;0.77;;;;;;;24.61;35.85;100026.44;20690310;28;20274;-76
2022/09/10 19:06:50;;;;;;;2.90;0.82;;;;;;;24.53;36.83;100011.28;20692826;28;20531;-76
2022/09/10 19:16:53;;;;;;;0.90;0.70;;;;;;;24.51;36.81;100002.69;20701206;28;20041;-77
2022/09/10 19:26:55;;;;;;;2.00;0.50;;;;;;;24.49;36.84;100001.97;20692413;28;20116;-75
2022/09/10 19:36:56;;;;;;;0.70;0.60;;;;;;;24.41;37.38;99996.59;20714524;28;20137;-78
2022/09/10 19:46:57;;;;;;;2.42;0.70;;;;;;;24.28;37.45;99997.78;20696481;28;20046;-75
2022/09/10 19:56:58;;;;;;;2.03;0.53;;;;;;;24.12;38.32;99997.59;20693486;28;20038;-77
2022/09/10 20:06:58;;;;;;;2.65;0.70;;;;;;;24.00;38.90;100001.44;20707916;28;20659;-76
2022/09/10 20:16:58;;;;;;;1.02;0.77;;;;;;;23.87;39.51;99999.09;20701909;28;20052;-78
2022/09/10 20:26:59;;;;;;;0.98;0.60;;;;;;;23.77;39.69;100005.25;20711835;28;20049;-77
2022/09/10 20:36:59;;;;;;;1.05;0.60;;;;;;;23.62;39.69;100004.91;20710535;28;20038;-77
2022/09/10 20:47:02;;;;;;;0.95;0.63;;;;;;;23.51;39.89;100007.72;20720876;28;20037;-77
2022/09/10 20:57:02;;;;;;;1.00;0.60;;;;;;;23.37;40.50;100016.09;20714681;28;20444;-77
2022/09/10 21:07:03;;;;;;;1.13;0.70;;;;;;;23.29;40.78;100012.34;20681590;28;20054;-77
2022/09/10 21:17:03;;;;;;;2.25;0.88;;;;;;;23.26;40.71;100028.47;20713081;28;20038;-78
2022/09/10 21:27:04;;;;;;;0.77;0.65;;;;;;;23.18;40.78;100023.09;20705981;28;20378;-77
2022/09/10 21:37:04;;;;;;;1.98;0.82;;;;;;;23.13;41.09;100014.69;20710278;28;20045;-77
2022/09/10 21:47:05;;;;;;;0.73;0.52;;;;;;;23.10;41.19;100023.75;20693746;28;20168;-77
2022/09/10 21:57:09;;;;;;;2.70;0.60;;;;;;;23.05;41.07;100044.47;20696428;28;20060;-77
2022/09/10 22:07:10;;;;;;;1.02;0.85;;;;;;;23.03;41.10;100041.97;20692598;28;20132;-77
2022/09/10 22:17:10;;;;;;;0.73;0.50;;;;;;;22.90;41.46;100053.75;20696616;28;20061;-77
2022/09/10 22:27:10;;;;;;;1.30;0.57;;;;;;;22.81;41.57;100068.63;20711884;28;20042;-77
2022/09/10 22:37:11;;;;;;;0.95;0.68;;;;;;;22.71;41.92;100077.34;20684899;28;20050;-77
2022/09/10 22:47:11;;;;;;;1.52;1.17;;;;;;;22.65;42.07;100087.63;20685596;28;20046;-77
2022/09/10 22:57:12;;;;;;;0.68;0.57;;;;;;;22.56;42.59;100094.56;20679084;28;20053;-76
2022/09/10 23:07:13;;;;;;;0.80;0.40;;;;;;;22.50;42.52;100088.00;20697609;28;20081;-77
2022/09/10 23:17:14;;;;;;;0.63;0.63;;;;;;;22.45;42.78;100087.59;20698762;28;20029;-77
2022/09/10 23:27:15;;;;;;;2.60;0.80;;;;;;;22.44;42.44;100099.09;20691948;28;20504;-77
2022/09/10 23:37:16;;;;;;;1.48;0.52;;;;;;;22.40;42.65;100087.16;20694188;28;20428;-78
2022/09/10 23:47:16;;;;;;;1.00;0.90;;;;;;;22.35;42.35;100074.34;20683659;28;20139;-77
2022/09/10 23:57:17;;;;;;;0.63;0.52;;;;;;;22.31;42.57;100085.28;20682978;28;20058;-78
